Time;durP1;ratioP1;P1;durP2;ratioP2;P2;SDS_P1;SDS_P2;PMS_P1;PMS_P2;Temp;Humidity;BMP_temperature;BMP_pressure;BME280_temperature;BME280_humidity;BME280_pressure;Samples;Min_cycle;Max_cycle;Signal;HPM_P1;HPM_P2
2022/06/18 00:01:35;;;;;;;;;;;;;;;28.68;33.07;97430.91;4191553;28;7881;-71
2022/06/18 00:03:39;;;;;;;;;;;;;;;28.66;32.75;97427.66;4191501;28;5809;-71
2022/06/18 00:05:44;;;;;;;;;;;;;;;28.64;32.99;97430.66;4193124;28;5705;-70
2022/06/18 00:07:51;;;;;;;;;;;;;;;28.62;32.88;97437.50;4163964;28;6417;-72
2022/06/18 00:10:01;;;;;;;;;;;;;;;28.57;32.90;97424.00;4150812;28;5065;-71
2022/06/18 00:14:35;;;;;;;;;;;;;;;28.49;33.17;97427.38;4153880;28;5782;-71
2022/06/18 00:16:44;;;;;;;;;;;;;;;28.44;32.95;97422.81;4161959;28;5744;-71
2022/06/18 00:18:49;;;;;;;;;;;;;;;28.42;33.02;97425.00;4170480;28;5717;-71
2022/06/18 00:20:53;;;;;;;;;;;;;;;28.44;32.91;97424.72;4170524;28;5747;-72
2022/06/18 00:22:58;;;;;;;;;;;;;;;28.41;33.05;97416.03;4155065;28;5774;-70
2022/06/18 00:25:01;;;;;;;;;;;;;;;28.40;33.21;97413.59;4170243;28;5728;-71
2022/06/18 00:27:05;;;;;;;;;;;;;;;28.40;33.14;97414.41;4153621;28;5766;-71
2022/06/18 00:29:12;;;;;;;;;;;;;;;28.39;33.24;97410.06;4153587;28;5787;-71
2022/06/18 00:31:15;;;;;;;;;;;;;;;28.40;33.16;97405.44;4160814;28;6418;-71
2022/06/18 00:33:19;;;;;;;;;;;;;;;28.36;33.38;97401.72;4157567;28;5777;-70
2022/06/18 00:35:24;;;;;;;;;;;;;;;28.37;33.39;97393.25;4153444;28;5322;-70
2022/06/18 00:37:26;;;;;;;;;;;;;;;28.37;33.38;97387.81;4153629;28;5771;-71
2022/06/18 00:39:30;;;;;;;;;;;;;;;28.35;33.22;97390.03;4153676;28;5852;-71
2022/06/18 00:41:34;;;;;;;;;;;;;;;28.29;33.50;97387.66;4170092;28;5792;-71
2022/06/18 00:43:42;;;;;;;;;;;;;;;28.26;33.29;97374.63;4169781;28;5831;-71
2022/06/18 00:45:45;;;;;;;;;;;;;;;28.29;33.42;97374.88;4158950;28;5782;-71
2022/06/18 00:47:56;;;;;;;;;;;;;;;28.31;33.42;97375.38;4168063;28;5863;-70
2022/06/18 00:50:05;;;;;;;;;;;;;;;28.33;33.57;97375.91;4154102;28;6014;-71
2022/06/18 00:52:16;;;;;;;;;;;;;;;28.32;33.35;97379.75;4168684;28;5736;-70
2022/06/18 00:54:25;;;;;;;;;;;;;;;28.21;33.27;97375.50;4167703;28;5803;-71
2022/06/18 00:56:33;;;;;;;;;;;;;;;28.18;33.51;97386.94;4168822;28;5747;-71
2022/06/18 00:58:43;;;;;;;;;;;;;;;28.23;33.56;97386.91;4169290;28;5748;-71
2022/06/18 01:00:48;;;;;;;;;;;;;;;28.25;33.45;97392.84;4166885;28;5866;-71
2022/06/18 01:02:52;;;;;;;;;;;;;;;28.23;33.63;97386.91;4165444;28;6634;-71
2022/06/18 01:04:55;;;;;;;;;;;;;;;28.17;33.70;97382.63;4153352;28;5758;-70
2022/06/18 01:07:05;;;;;;;;;;;;;;;28.10;33.59;97380.28;4198586;28;5817;-71
2022/06/18 01:09:16;;;;;;;;;;;;;;;28.09;33.39;97380.56;4218352;28;5671;-71
2022/06/18 01:11:23;;;;;;;;;;;;;;;28.12;33.58;97382.69;4184576;28;5841;-71
2022/06/18 01:13:32;;;;;;;;;;;;;;;28.14;33.57;97378.56;4185738;28;5715;-71
2022/06/18 01:15:35;;;;;;;;;;;;;;;28.19;33.43;97388.56;4185177;28;5817;-71
2022/06/18 01:17:41;;;;;;;;;;;;;;;28.17;33.29;97385.34;4200919;28;5821;-71
2022/06/18 01:19:47;;;;;;;;;;;;;;;28.17;33.20;97382.63;4201875;28;5772;-70
2022/06/18 01:22:00;;;;;;;;;;;;;;;28.16;33.28;97380.19;4202440;28;5856;-71
2022/06/18 01:24:11;;;;;;;;;;;;;;;28.16;33.44;97385.63;4202065;28;6069;-70
2022/06/18 01:26:15;;;;;;;;;;;;;;;28.19;33.60;97382.31;4191755;28;5072;-71
2022/06/18 01:28:20;;;;;;;;;;;;;;;28.17;33.71;97388.06;4185392;28;5808;-71
2022/06/18 01:30:26;;;;;;;;;;;;;;;28.19;34.13;97390.47;4193068;28;5700;-71
2022/06/18 01:32:30;;;;;;;;;;;;;;;28.18;34.62;97389.66;4201360;28;6482;-71
2022/06/18 01:34:33;;;;;;;;;;;;;;;28.16;34.80;97386.44;4197119;28;5693;-70
2022/06/18 01:36:38;;;;;;;;;;;;;;;28.12;35.20;97386.22;4192246;28;5678;-71
2022/06/18 01:38:44;;;;;;;;;;;;;;;28.09;35.40;97386.00;4192414;28;6562;-71
2022/06/18 01:40:54;;;;;;;;;;;;;;;28.06;35.75;97375.69;4185758;28;8458;-72
2022/06/18 01:43:01;;;;;;;;;;;;;;;28.04;35.91;97373.28;4198522;28;7729;-71
2022/06/18 01:45:09;;;;;;;;;;;;;;;28.02;36.08;97369.22;4185042;28;5707;-70
2022/06/18 01:47:15;;;;;;;;;;;;;;;28.00;36.39;97366.00;4184120;28;5832;-70
2022/06/18 01:49:24;;;;;;;;;;;;;;;27.99;36.61;97367.09;4185485;28;5711;-71
2022/06/18 01:51:32;;;;;;;;;;;;;;;27.97;37.00;97361.13;4185666;28;5793;-71
2022/06/18 01:53:40;;;;;;;;;;;;;;;27.94;37.00;97359.00;4183921;28;5721;-70
2022/06/18 01:55:49;;;;;;;;;;;;;;;27.90;37.29;97357.97;4191796;28;5709;-71
2022/06/18 01:57:58;;;;;;;;;;;;;;;27.85;37.24;97353.41;4201759;28;5079;-70
2022/06/18 02:00:09;;;;;;;;;;;;;;;27.82;37.44;97349.38;4201465;28;5840;-70
2022/06/18 02:02:13;;;;;;;;;;;;;;;27.80;37.59;97351.56;4203010;28;6406;-70
2022/06/18 02:04:19;;;;;;;;;;;;;;;27.78;37.60;97348.34;4184603;28;5734;-71
2022/06/18 02:06:24;;;;;;;;;;;;;;;27.76;37.69;97342.38;4186780;28;5822;-71
2022/06/18 02:08:27;;;;;;;;;;;;;;;27.76;38.08;97342.38;4201204;28;5673;-71
2022/06/18 02:10:33;;;;;;;;;;;;;;;27.74;38.15;97336.41;4200623;28;5951;-70
2022/06/18 02:12:40;;;;;;;;;;;;;;;27.73;38.24;97334.81;4201481;28;5685;-71
2022/06/18 02:14:49;;;;;;;;;;;;;;;27.72;37.64;97332.38;4184770;28;7738;-70
2022/06/18 02:16:55;;;;;;;;;;;;;;;27.72;38.20;97322.31;4191792;28;5871;-71
2022/06/18 02:19:01;;;;;;;;;;;;;;;27.72;38.04;97318.78;4184891;28;5805;-71
2022/06/18 02:21:10;;;;;;;;;;;;;;;27.69;37.95;97319.38;4184557;28;5711;-71
2022/06/18 02:23:13;;;;;;;;;;;;;;;27.68;38.17;97312.34;4184748;28;5747;-71
2022/06/18 02:25:20;;;;;;;;;;;;;;;27.67;38.13;97308.81;4184708;28;5731;-71
2022/06/18 02:27:24;;;;;;;;;;;;;;;27.65;37.96;97305.59;4184687;28;5718;-70
2022/06/18 02:29:30;;;;;;;;;;;;;;;27.65;37.85;97311.03;4183916;28;5814;-71
2022/06/18 02:31:36;;;;;;;;;;;;;;;27.66;38.07;97311.81;4184941;28;5754;-72
2022/06/18 02:33:42;;;;;;;;;;;;;;;27.66;37.67;97304.50;4188502;28;5870;-71
2022/06/18 02:35:46;;;;;;;;;;;;;;;27.64;37.68;97303.13;4184276;28;6007;-72
2022/06/18 02:37:49;;;;;;;;;;;;;;;27.62;37.64;97297.97;4184218;28;5715;-71
2022/06/18 02:40:03;;;;;;;;;;;;;;;27.59;37.90;97295.03;4184228;28;5710;-71
2022/06/18 02:42:11;;;;;;;;;;;;;;;27.56;37.86;97299.16;4184494;28;5710;-71
2022/06/18 02:44:16;;;;;;;;;;;;;;;27.54;37.73;97299.44;4184271;28;5797;-71
2022/06/18 02:46:19;;;;;;;;;;;;;;;27.54;37.57;97293.19;4190785;28;5677;-72
2022/06/18 02:48:27;;;;;;;;;;;;;;;27.54;37.33;97302.16;4200795;28;5812;-71
2022/06/18 02:50:34;;;;;;;;;;;;;;;27.54;37.39;97304.06;4191245;28;5734;-72
2022/06/18 02:52:45;;;;;;;;;;;;;;;27.53;37.47;97307.88;4183267;28;5828;-71
2022/06/18 02:54:48;;;;;;;;;;;;;;;27.50;37.58;97306.53;4188560;28;5701;-72
2022/06/18 02:56:51;;;;;;;;;;;;;;;27.48;37.63;97316.88;4189104;28;5839;-70
2022/06/18 02:58:56;;;;;;;;;;;;;;;27.45;37.81;97300.38;4184528;28;5702;-70
2022/06/18 03:01:03;;;;;;;;;;;;;;;27.44;37.83;97296.03;4197944;28;5690;-71
2022/06/18 03:03:10;;;;;;;;;;;;;;;27.42;37.98;97293.59;4190265;28;5722;-71
2022/06/18 03:05:22;;;;;;;;;;;;;;;27.43;37.85;97302.56;4190873;28;5413;-70
2022/06/18 03:07:24;;;;;;;;;;;;;;;27.43;37.90;97291.69;4193634;28;5717;-71
2022/06/18 03:09:27;;;;;;;;;;;;;;;27.41;37.98;97299.31;4201006;28;5768;-71
2022/06/18 03:13:51;;;;;;;;;;;;;;;27.41;37.91;97310.16;4199663;28;5714;-71
2022/06/18 03:15:57;;;;;;;;;;;;;;;27.38;37.87;97306.13;4191743;28;5730;-71
2022/06/18 03:18:00;;;;;;;;;;;;;;;27.38;38.20;97305.31;4185503;28;7361;-71
2022/06/18 03:20:11;;;;;;;;;;;;;;;27.38;38.07;97310.75;4210168;28;5775;-71
2022/06/18 03:22:19;;;;;;;;;;;;;;;27.33;38.24;97308.91;4184083;28;5801;-72
2022/06/18 03:24:22;;;;;;;;;;;;;;;27.31;38.24;97310.31;4184273;28;5801;-72
2022/06/18 03:26:25;;;;;;;;;;;;;;;27.30;38.42;97316.84;4196504;28;7065;-70
2022/06/18 03:28:29;;;;;;;;;;;;;;;27.28;38.32;97317.09;4200213;28;5712;-70
2022/06/18 03:30:32;;;;;;;;;;;;;;;27.28;38.52;97323.31;4199872;28;5083;-71
2022/06/18 03:32:35;;;;;;;;;;;;;;;27.28;38.38;97323.31;4188357;28;6566;-71
2022/06/18 03:34:38;;;;;;;;;;;;;;;27.26;38.62;97328.25;4185135;28;5722;-71
2022/06/18 03:36:41;;;;;;;;;;;;;;;27.28;38.50;97333.38;4188196;28;5892;-70
2022/06/18 03:38:46;;;;;;;;;;;;;;;27.26;38.34;97328.25;4199665;28;5788;-71
2022/06/18 03:40:51;;;;;;;;;;;;;;;27.25;38.26;97337.47;4200241;28;5696;-70
2022/06/18 03:42:54;;;;;;;;;;;;;;;27.25;38.65;97323.09;4198134;28;5689;-71
2022/06/18 03:44:57;;;;;;;;;;;;;;;27.27;38.60;97327.13;4193927;28;5715;-71
2022/06/18 03:47:02;;;;;;;;;;;;;;;27.26;38.34;97325.53;4186297;28;5723;-71
2022/06/18 03:49:07;;;;;;;;;;;;;;;27.27;38.57;97324.44;4183797;28;5715;-70
2022/06/18 03:51:12;;;;;;;;;;;;;;;27.30;38.26;97335.84;4199222;28;5693;-70
2022/06/18 03:53:14;;;;;;;;;;;;;;;27.28;38.49;97334.19;4200440;28;5721;-72
2022/06/18 03:55:25;;;;;;;;;;;;;;;27.27;38.62;97339.91;4199447;28;5836;-70
2022/06/18 03:57:29;;;;;;;;;;;;;;;27.24;38.65;97341.28;4189331;28;5678;-71
2022/06/18 03:59:32;;;;;;;;;;;;;;;27.27;38.44;97350.75;4188605;28;5851;-70
2022/06/18 04:01:40;;;;;;;;;;;;;;;27.25;38.27;97340.19;4194678;28;6097;-71
2022/06/18 04:03:43;;;;;;;;;;;;;;;27.21;38.47;97341.06;4194531;28;5714;-71
2022/06/18 04:05:46;;;;;;;;;;;;;;;27.22;38.23;97350.84;4190994;28;5703;-70
2022/06/18 04:07:50;;;;;;;;;;;;;;;27.19;38.51;97349.50;4157575;28;5860;-71
2022/06/18 04:09:54;;;;;;;;;;;;;;;27.19;38.50;97346.78;4166974;28;7738;-71
2022/06/18 04:12:00;;;;;;;;;;;;;;;27.19;38.32;97341.34;4164965;28;5736;-72
2022/06/18 04:14:21;;;;;;;;;;;;;;;27.19;38.41;97341.34;4148924;28;5857;-70
2022/06/18 04:16:24;;;;;;;;;;;;;;;27.16;38.56;97346.53;4157185;28;5796;-71
2022/06/18 04:18:27;;;;;;;;;;;;;;;27.20;38.25;97342.16;4166322;28;5740;-71
2022/06/18 04:20:33;;;;;;;;;;;;;;;27.22;38.60;97350.84;4164500;28;5948;-70
2022/06/18 04:22:36;;;;;;;;;;;;;;;27.21;38.58;97350.03;4165680;28;5737;-71
2022/06/18 04:24:39;;;;;;;;;;;;;;;27.21;38.58;97349.22;4149149;28;5840;-70
2022/06/18 04:26:42;;;;;;;;;;;;;;;27.23;38.29;97336.16;4148755;28;5769;-70
2022/06/18 04:28:47;;;;;;;;;;;;;;;27.26;38.37;97347.25;4150178;28;5874;-72
2022/06/18 04:30:50;;;;;;;;;;;;;;;27.26;38.40;97333.66;4158116;28;5876;-70
2022/06/18 04:32:53;;;;;;;;;;;;;;;27.28;38.19;97341.53;4156676;28;5725;-71
2022/06/18 04:34:56;;;;;;;;;;;;;;;27.27;38.54;97342.63;4165171;28;5756;-71
2022/06/18 04:36:59;;;;;;;;;;;;;;;27.24;38.44;97349.44;4149983;28;7772;-71
2022/06/18 04:39:02;;;;;;;;;;;;;;;27.24;38.67;97343.19;4150366;28;5794;-70
2022/06/18 04:41:05;;;;;;;;;;;;;;;27.25;38.76;97347.53;4149337;28;5932;-70
2022/06/18 04:43:10;;;;;;;;;;;;;;;27.27;38.46;97348.03;4157355;28;5741;-71
2022/06/18 04:45:15;;;;;;;;;;;;;;;27.25;38.49;97347.53;4166324;28;5733;-70
2022/06/18 04:47:18;;;;;;;;;;;;;;;27.27;38.78;97348.84;4163938;28;5835;-71
2022/06/18 04:49:22;;;;;;;;;;;;;;;27.30;38.71;97346.69;4166521;28;5740;-71
2022/06/18 04:51:25;;;;;;;;;;;;;;;27.32;38.58;97352.63;4164169;28;5855;-71
2022/06/18 04:53:28;;;;;;;;;;;;;;;27.31;38.11;97354.53;4163951;28;5856;-71
2022/06/18 04:55:33;;;;;;;;;;;;;;;27.33;38.38;97346.91;4153927;28;5977;-71
2022/06/18 04:57:36;;;;;;;;;;;;;;;27.32;38.38;97345.28;4160552;28;5869;-71
2022/06/18 04:59:41;;;;;;;;;;;;;;;27.33;38.25;97351.53;4163320;28;5955;-71
2022/06/18 05:01:45;;;;;;;;;;;;;;;27.27;38.19;97348.03;4162210;28;5976;-70
2022/06/18 05:03:49;;;;;;;;;;;;;;;27.22;38.57;97345.41;4160507;28;5831;-70
2022/06/18 05:05:52;;;;;;;;;;;;;;;27.12;38.41;97340.06;4165978;28;5879;-71
2022/06/18 05:07:55;;;;;;;;;;;;;;;27.12;38.38;97340.06;4197825;28;5909;-70
2022/06/18 05:09:58;;;;;;;;;;;;;;;27.17;38.50;97337.28;4199850;28;5776;-71
2022/06/18 05:12:01;;;;;;;;;;;;;;;27.20;38.76;97337.56;4198466;28;5836;-71
2022/06/18 05:14:04;;;;;;;;;;;;;;;27.24;38.64;97333.16;4191955;28;6167;-70
2022/06/18 05:16:11;;;;;;;;;;;;;;;27.29;38.64;97335.00;4181981;28;5750;-71
2022/06/18 05:18:18;;;;;;;;;;;;;;;27.32;38.54;97334.44;4183217;28;5845;-70
2022/06/18 05:20:24;;;;;;;;;;;;;;;27.39;38.48;97328.66;4190318;28;5912;-71
2022/06/18 05:22:28;;;;;;;;;;;;;;;27.44;38.41;97326.69;4183955;28;6149;-72
2022/06/18 05:24:31;;;;;;;;;;;;;;;27.51;38.50;97318.19;4198011;28;6002;-72
2022/06/18 05:26:34;;;;;;;;;;;;;;;27.60;38.22;97319.19;4199307;28;5809;-73
2022/06/18 05:28:37;;;;;;;;;;;;;;;27.68;38.49;97321.28;4198915;28;5812;-72
2022/06/18 05:30:41;;;;;;;;;;;;;;;27.71;38.43;97319.91;4199362;28;5791;-79
2022/06/18 05:32:44;;;;;;;;;;;;;;;27.62;38.51;97316.16;4200466;28;5796;-79
2022/06/18 05:34:48;;;;;;;;;;;;;;;27.67;38.42;97308.81;4199325;28;5789;-79
2022/06/18 05:36:51;;;;;;;;;;;;;;;27.75;38.50;97312.81;4183819;28;5851;-81
2022/06/18 05:38:54;;;;;;;;;;;;;;;27.85;38.33;97297.16;4183561;28;5805;-79
2022/06/18 05:40:57;;;;;;;;;;;;;;;28.03;38.36;97300.19;4183660;28;5813;-79
2022/06/18 05:43:01;;;;;;;;;;;;;;;28.13;38.19;97298.13;4184569;28;5797;-79
2022/06/18 05:45:04;;;;;;;;;;;;;;;28.26;38.11;97302.03;4183421;28;5711;-79
2022/06/18 05:47:14;;;;;;;;;;;;;;;28.39;38.22;97301.31;4183451;28;5833;-79
2022/06/18 05:49:18;;;;;;;;;;;;;;;28.57;37.98;97304.31;4208482;28;5763;-80
2022/06/18 05:51:23;;;;;;;;;;;;;;;28.67;37.83;97293.28;4197904;28;5793;-79
2022/06/18 05:53:26;;;;;;;;;;;;;;;28.68;37.76;97290.25;4212408;28;5831;-79
2022/06/18 05:55:29;;;;;;;;;;;;;;;28.71;38.08;97291.56;4199519;28;6346;-80
2022/06/18 05:57:32;;;;;;;;;;;;;;;28.81;37.80;97285.94;4188163;28;6231;-70
2022/06/18 05:59:35;;;;;;;;;;;;;;;28.91;37.85;97288.53;4185381;28;5816;-70
2022/06/18 06:01:38;;;;;;;;;;;;;;;29.00;37.74;97296.81;4192329;28;5939;-70
2022/06/18 06:03:41;;;;;;;;;;;;;;;29.03;37.67;97290.75;4191667;28;5826;-72
2022/06/18 06:05:45;;;;;;;;;;;;;;;29.10;37.64;97302.03;4189210;28;5941;-71
2022/06/18 06:07:49;;;;;;;;;;;;;;;29.10;37.50;97291.16;4182817;28;5830;-66
2022/06/18 06:12:15;;;;;;;;;;;;;;;29.09;37.74;97281.38;4190354;28;5839;-66
2022/06/18 06:14:19;;;;;;;;;;;;;;;29.11;37.70;97283.81;4192535;28;5685;-66
2022/06/18 06:16:22;;;;;;;;;;;;;;;29.10;37.73;97283.00;4212469;28;5679;-67
2022/06/18 06:18:26;;;;;;;;;;;;;;;29.14;37.81;97277.78;4192935;28;5832;-66
2022/06/18 06:20:32;;;;;;;;;;;;;;;29.15;37.64;97287.56;4202065;28;5709;-67
2022/06/18 06:22:35;;;;;;;;;;;;;;;29.18;37.42;97281.50;4195900;28;5733;-66
2022/06/18 06:24:39;;;;;;;;;;;;;;;29.22;37.61;97282.50;4189633;28;6740;-66
2022/06/18 06:26:42;;;;;;;;;;;;;;;29.29;37.53;97282.91;4184384;28;7030;-68
2022/06/18 06:28:45;;;;;;;;;;;;;;;29.31;37.61;97280.69;4197668;28;5091;-67
2022/06/18 06:30:50;;;;;;;;;;;;;;;29.29;37.48;97277.47;4191360;28;5796;-66
2022/06/18 06:32:54;;;;;;;;;;;;;;;29.24;37.37;97267.50;4188525;28;5706;-67
2022/06/18 06:34:57;;;;;;;;;;;;;;;29.27;37.28;97275.06;4195226;28;5774;-68
2022/06/18 06:37:00;;;;;;;;;;;;;;;29.35;37.23;97270.03;4184348;28;5821;-66
2022/06/18 06:39:03;;;;;;;;;;;;;;;29.41;37.14;97269.59;4184462;28;5706;-66
2022/06/18 06:41:11;;;;;;;;;;;;;;;29.43;37.17;97277.47;4183443;28;5782;-66
2022/06/18 06:43:16;;;;;;;;;;;;;;;29.44;36.96;97269.00;4184634;28;5742;-66
2022/06/18 06:45:23;;;;;;;;;;;;;;;29.47;36.90;97273.88;4196327;28;5698;-66
2022/06/18 06:47:25;;;;;;;;;;;;;;;29.48;36.99;97275.50;4189113;28;5785;-67
2022/06/18 06:49:28;;;;;;;;;;;;;;;29.58;36.73;97274.50;4196686;28;5706;-67
2022/06/18 06:51:35;;;;;;;;;;;;;;;29.63;36.80;97279.00;4200480;28;6384;-67
2022/06/18 06:53:41;;;;;;;;;;;;;;;29.65;36.53;97279.50;4193257;28;5888;-66
2022/06/18 06:58:11;;;;;;;;;;;;;;;29.74;36.44;97288.59;4195917;28;5832;-67
2022/06/18 07:00:15;;;;;;;;;;;;;;;29.79;36.51;97285.78;4191230;28;5737;-66
2022/06/18 07:02:20;;;;;;;;;;;;;;;29.83;36.37;97287.56;4192366;28;5802;-67
2022/06/18 07:04:23;;;;;;;;;;;;;;;29.85;36.36;97296.25;4200037;28;5839;-68
2022/06/18 07:06:26;;;;;;;;;;;;;;;29.85;36.29;97303.59;4186383;28;5802;-66
2022/06/18 07:08:30;;;;;;;;;;;;;;;29.79;36.43;97307.56;4195310;28;5817;-66
2022/06/18 07:10:33;;;;;;;;;;;;;;;29.76;36.27;97302.72;4195892;28;5701;-66
2022/06/18 07:12:36;;;;;;;;;;;;;;;29.67;36.29;97297.16;4198234;28;6367;-67
2022/06/18 07:14:40;;;;;;;;;;;;;;;29.66;36.18;97298.28;4195497;28;5911;-67
2022/06/18 07:16:48;;;;;;;;;;;;;;;29.62;36.23;97293.75;4185865;28;5681;-67
2022/06/18 07:18:53;;;;;;;;;;;;;;;29.58;36.31;97290.84;4191843;28;5705;-67
2022/06/18 07:20:56;;;;;;;;;;;;;;;29.53;36.21;97289.00;4185537;28;5730;-67
2022/06/18 07:22:59;;;;;;;;;;;;;;;29.47;36.23;97295.69;4188049;28;5797;-67
2022/06/18 07:25:02;;;;;;;;;;;;;;;29.46;36.20;97294.03;4190670;28;5678;-67
2022/06/18 07:27:05;;;;;;;;;;;;;;;29.45;36.15;97289.69;4185005;28;5714;-67
2022/06/18 07:29:09;;;;;;;;;;;;;;;29.47;36.11;97286.66;4187165;28;5851;-67
2022/06/18 07:31:16;;;;;;;;;;;;;;;29.49;35.99;97287.19;4199151;28;5685;-66
2022/06/18 07:33:22;;;;;;;;;;;;;;;29.46;36.07;97288.59;4187299;28;5782;-67
2022/06/18 07:35:27;;;;;;;;;;;;;;;29.43;36.13;97283.72;4195772;28;5821;-66
2022/06/18 07:37:30;;;;;;;;;;;;;;;29.42;36.06;97293.00;4197261;28;5780;-66
2022/06/18 07:39:34;;;;;;;;;;;;;;;29.40;36.01;97291.69;4196180;28;5720;-66
2022/06/18 07:41:40;;;;;;;;;;;;;;;29.39;36.07;97277.28;4191109;28;5694;-66
2022/06/18 07:43:50;;;;;;;;;;;;;;;29.31;36.08;97286.13;4183633;28;5817;-67
2022/06/18 07:45:53;;;;;;;;;;;;;;;29.24;36.21;97277.59;4185708;28;5921;-67
2022/06/18 07:47:58;;;;;;;;;;;;;;;29.21;36.01;97280.88;4199408;28;5110;-67
2022/06/18 07:50:03;;;;;;;;;;;;;;;29.16;36.00;97278.28;4191910;28;5735;-67
2022/06/18 07:52:06;;;;;;;;;;;;;;;29.13;36.17;97278.88;4193574;28;5689;-66
2022/06/18 07:54:13;;;;;;;;;;;;;;;29.13;36.08;97273.44;4195285;28;6037;-67
2022/06/18 07:56:17;;;;;;;;;;;;;;;29.10;36.15;97272.09;4199510;28;5781;-66
2022/06/18 07:58:20;;;;;;;;;;;;;;;29.10;36.15;97268.56;4191851;28;5808;-67
2022/06/18 08:00:24;;;;;;;;;;;;;;;29.09;35.99;97273.22;4193964;28;5713;-68
2022/06/18 08:02:27;;;;;;;;;;;;;;;29.09;36.29;97264.25;4189379;28;5701;-66
2022/06/18 08:04:31;;;;;;;;;;;;;;;29.08;36.24;97263.44;4193874;28;5714;-66
2022/06/18 08:06:34;;;;;;;;;;;;;;;29.06;36.38;97275.75;4194647;28;5725;-68
2022/06/18 08:08:38;;;;;;;;;;;;;;;29.06;36.11;97275.75;4183773;28;5995;-66
2022/06/18 08:10:43;;;;;;;;;;;;;;;29.04;36.36;97270.59;4185255;28;5790;-68
2022/06/18 08:12:47;;;;;;;;;;;;;;;29.05;36.24;97268.69;4198052;28;5682;-66
2022/06/18 08:14:50;;;;;;;;;;;;;;;29.03;36.54;97269.00;4183205;28;6401;-68
2022/06/18 08:16:52;;;;;;;;;;;;;;;29.02;36.33;97269.28;4186621;28;5697;-68
2022/06/18 08:18:56;;;;;;;;;;;;;;;29.03;36.31;97270.91;4198031;28;5721;-67
2022/06/18 08:21:06;;;;;;;;;;;;;;;29.01;36.24;97264.97;4183378;28;5956;-68
2022/06/18 08:23:10;;;;;;;;;;;;;;;28.97;36.35;97257.38;4193236;28;5693;-67
2022/06/18 08:25:15;;;;;;;;;;;;;;;29.01;36.32;97257.59;4195927;28;5741;-68
2022/06/18 08:27:20;;;;;;;;;;;;;;;29.01;36.61;97251.34;4205233;28;5810;-67
2022/06/18 08:29:25;;;;;;;;;;;;;;;29.01;36.29;97254.06;4216650;28;5664;-65
2022/06/18 08:31:28;;;;;;;;;;;;;;;29.02;36.39;97253.78;4210061;28;5820;-66
2022/06/18 08:33:32;;;;;;;;;;;;;;;29.04;36.61;97242.56;4198035;28;5808;-67
2022/06/18 08:35:37;;;;;;;;;;;;;;;29.06;36.44;97240.34;4201737;28;5784;-64
2022/06/18 08:37:42;;;;;;;;;;;;;;;29.08;36.38;97243.59;4201644;28;5709;-64
2022/06/18 08:39:45;;;;;;;;;;;;;;;29.08;36.44;97244.38;4198003;28;7749;-65
2022/06/18 08:42:02;;;;;;;;;;;;;;;29.09;36.38;97239.75;4196013;28;5719;-64
2022/06/18 08:44:32;;;;;;;;;;;;;;;29.08;36.49;97249.81;4196074;28;6766;-65
2022/06/18 08:46:39;;;;;;;;;;;;;;;29.02;36.65;97248.31;4202281;28;5862;-65
2022/06/18 08:49:08;;;;;;;;;;;;;;;28.94;36.44;97244.38;4203010;28;5729;-66
2022/06/18 08:51:22;;;;;;;;;;;;;;;28.93;36.61;97247.41;4184835;28;5715;-64
2022/06/18 08:53:44;;;;;;;;;;;;;;;28.93;36.42;97250.13;4196658;28;5682;-65
2022/06/18 08:55:56;;;;;;;;;;;;;;;28.97;36.52;97242.97;4201265;28;6615;-65
2022/06/18 08:58:06;;;;;;;;;;;;;;;28.99;36.45;97247.03;4187044;28;5836;-64
2022/06/18 09:00:17;;;;;;;;;;;;;;;29.01;36.55;97248.63;4201022;28;5844;-65
2022/06/18 09:02:26;;;;;;;;;;;;;;;29.02;36.55;97247.53;4196841;28;5718;-64
2022/06/18 09:04:39;;;;;;;;;;;;;;;29.01;36.59;97240.47;4186240;28;5841;-64
2022/06/18 09:06:58;;;;;;;;;;;;;;;28.95;36.70;97234.28;4196243;28;5689;-64
2022/06/18 09:09:13;;;;;;;;;;;;;;;28.95;36.62;97235.09;4217843;28;6354;-65
2022/06/18 09:11:29;;;;;;;;;;;;;;;28.96;36.60;97228.56;4219821;28;5668;-65
2022/06/18 09:13:36;;;;;;;;;;;;;;;28.92;36.64;97226.75;4186310;28;5782;-67
2022/06/18 09:15:44;;;;;;;;;;;;;;;28.89;36.58;97219.19;4185698;28;5770;-65
2022/06/18 09:17:52;;;;;;;;;;;;;;;28.92;36.84;97224.81;4185705;28;5715;-64
2022/06/18 09:20:00;;;;;;;;;;;;;;;28.97;36.52;97226.63;4185795;28;6388;-65
2022/06/18 09:22:09;;;;;;;;;;;;;;;29.02;36.59;97228.47;4184309;28;5091;-67
2022/06/18 09:24:19;;;;;;;;;;;;;;;29.04;36.65;97216.16;4185156;28;5699;-66
2022/06/18 09:26:27;;;;;;;;;;;;;;;29.04;36.52;97220.81;4202254;28;5482;-66
2022/06/18 09:28:35;;;;;;;;;;;;;;;29.06;36.66;97219.38;4202200;28;6371;-67
2022/06/18 09:30:47;;;;;;;;;;;;;;;29.10;36.62;97219.59;4191496;28;5810;-66
2022/06/18 09:32:56;;;;;;;;;;;;;;;29.09;36.49;97218.78;4184203;28;5727;-67
2022/06/18 09:35:03;;;;;;;;;;;;;;;29.10;36.57;97216.84;4185181;28;6152;-67
2022/06/18 09:37:12;;;;;;;;;;;;;;;29.09;36.56;97207.88;4185758;28;5702;-67
2022/06/18 09:39:20;;;;;;;;;;;;;;;29.09;36.67;97207.09;4183586;28;5733;-67
2022/06/18 09:41:28;;;;;;;;;;;;;;;29.08;36.59;97208.19;4189664;28;5705;-66
2022/06/18 09:43:42;;;;;;;;;;;;;;;29.11;36.63;97208.41;4208753;28;5687;-67
2022/06/18 09:45:52;;;;;;;;;;;;;;;29.13;36.46;97208.09;4218357;28;5766;-67
2022/06/18 09:47:55;;;;;;;;;;;;;;;29.14;36.42;97201.56;4191520;28;5734;-67
2022/06/18 09:49:59;;;;;;;;;;;;;;;29.14;36.19;97204.28;4196070;28;5715;-67
2022/06/18 09:52:08;;;;;;;;;;;;;;;29.16;36.37;97200.13;4192933;28;5706;-66
2022/06/18 09:54:13;;;;;;;;;;;;;;;29.21;36.22;97201.94;4200714;28;5688;-66
2022/06/18 09:56:25;;;;;;;;;;;;;;;29.23;36.14;97195.09;4201646;28;5686;-66
2022/06/18 09:58:33;;;;;;;;;;;;;;;29.24;35.99;97188.53;4200535;28;5733;-67
2022/06/18 10:00:37;;;;;;;;;;;;;;;29.25;35.92;97192.88;4208754;28;5671;-67
2022/06/18 10:02:46;;;;;;;;;;;;;;;29.26;35.80;97197.22;4218721;28;5748;-67
2022/06/18 10:07:14;;;;;;;;;;;;;;;29.30;35.77;97189.22;4197096;28;5682;-66
2022/06/18 10:09:22;;;;;;;;;;;;;;;29.33;35.48;97185.88;4194459;28;5722;-67
2022/06/18 10:11:27;;;;;;;;;;;;;;;29.35;35.62;97189.13;4202075;28;5697;-68
2022/06/18 10:13:30;;;;;;;;;;;;;;;29.38;35.47;97177.63;4194710;28;7808;-69
2022/06/18 10:15:36;;;;;;;;;;;;;;;29.41;35.45;97184.38;4185260;28;5711;-68
2022/06/18 10:18:02;;;;;;;;;;;;;;;29.42;35.16;97175.91;4186952;28;5823;-68
2022/06/18 10:20:16;;;;;;;;;;;;;;;29.44;35.26;97168.22;4193299;28;5708;-81
2022/06/18 10:22:27;;;;;;;;;;;;;;;29.47;35.17;97175.84;4206532;28;5711;-76
2022/06/18 10:24:36;;;;;;;;;;;;;;;29.49;35.08;97170.88;4191511;28;6542;-70
2022/06/18 10:26:47;;;;;;;;;;;;;;;29.52;35.07;97175.72;4200455;28;5832;-76
2022/06/18 10:29:00;;;;;;;;;;;;;;;29.54;35.07;97176.19;4201378;28;5799;-71
2022/06/18 10:31:20;;;;;;;;;;;;;;;29.56;35.00;97174.00;4189020;28;5729;-77
2022/06/18 10:33:33;;;;;;;;;;;;;;;29.59;34.97;97171.78;4198155;28;5682;-73
2022/06/18 10:35:45;;;;;;;;;;;;;;;29.58;34.95;97176.41;4192079;28;6608;-74
2022/06/18 10:38:00;;;;;;;;;;;;;;;29.54;34.88;97173.47;4191742;28;5908;-72
2022/06/18 10:40:25;;;;;;;;;;;;;;;29.51;35.08;97168.66;4187010;28;5805;-76
2022/06/18 10:42:44;;;;;;;;;;;;;;;29.54;35.27;97167.22;4195211;28;5816;-79
2022/06/18 10:44:57;;;;;;;;;;;;;;;29.56;35.54;97173.16;4188392;28;5789;-77
2022/06/18 10:47:02;;;;;;;;;;;;;;;29.57;35.72;97177.53;4192459;28;6522;-74
2022/06/18 10:49:07;;;;;;;;;;;;;;;29.60;35.74;97170.66;4192395;28;5832;-78
2022/06/18 10:51:16;;;;;;;;;;;;;;;29.62;36.13;97162.97;4190962;28;5821;-78
2022/06/18 10:53:22;;;;;;;;;;;;;;;29.63;36.16;97156.41;4204662;28;5792;-73
2022/06/18 10:55:25;;;;;;;;;;;;;;;29.62;36.16;97155.63;4187606;28;5805;-75
2022/06/18 10:57:28;;;;;;;;;;;;;;;29.64;36.24;97158.84;4180566;28;5825;-79
2022/06/18 10:59:53;;;;;;;;;;;;;;;29.62;36.29;97147.44;4182676;28;5805;-78
2022/06/18 11:01:57;;;;;;;;;;;;;;;29.64;36.44;97150.66;4147271;28;5859;-78
2022/06/18 11:04:03;;;;;;;;;;;;;;;29.66;36.55;97159.31;4119866;28;5926;-80
2022/06/18 11:06:12;;;;;;;;;;;;;;;29.67;36.29;97151.94;4127949;28;5923;-79
2022/06/18 11:08:22;;;;;;;;;;;;;;;29.68;36.45;97153.59;4137058;28;5887;-83
2022/06/18 11:10:34;;;;;;;;;;;;;;;29.71;36.58;97155.69;4136355;28;5914;-80
2022/06/18 11:12:39;;;;;;;;;;;;;;;29.72;36.28;97155.38;4139602;28;6244;-78
2022/06/18 11:14:44;;;;;;;;;;;;;;;29.71;36.68;97148.31;4137240;28;6751;-80
2022/06/18 11:16:49;;;;;;;;;;;;;;;29.73;36.68;97156.19;4114514;28;5946;-78
2022/06/18 11:18:55;;;;;;;;;;;;;;;29.75;36.44;97153.97;4146783;28;5881;-78